Time;durP1;ratioP1;P1;durP2;ratioP2;P2;SDS_P1;SDS_P2;PMS_P1;PMS_P2;Temp;Humidity;BMP_temperature;BMP_pressure;BME280_temperature;BME280_humidity;BME280_pressure;Samples;Min_cycle;Max_cycle;Signal;HPM_P1;HPM_P2
2021/04/19 00:01:21;;;;;;;11.55;7.55;;;128.50;2252.80;;;;;;5098256;28;20374;-71
2021/04/19 00:03:47;;;;;;;11.10;6.93;;;128.50;2252.80;;;;;;5098528;28;20397;-71
2021/04/19 00:06:13;;;;;;;9.50;6.38;;;128.40;2252.80;;;;;;5098043;28;20044;-71
2021/04/19 00:08:38;;;;;;;9.55;6.53;;;128.40;2252.80;;;;;;5112173;28;20022;-70
2021/04/19 00:11:04;;;;;;;10.05;6.45;;;128.40;2252.80;;;;;;5120411;28;20036;-70
2021/04/19 00:13:30;;;;;;;11.55;6.63;;;128.30;2252.80;;;;;;5120444;28;20381;-71
2021/04/19 00:15:56;;;;;;;9.65;6.28;;;128.30;2252.80;;;;;;5120684;28;20035;-71
2021/04/19 00:18:22;;;;;;;10.38;7.03;;;128.30;2252.80;;;;;;5120625;28;20023;-71
2021/04/19 00:20:48;;;;;;;9.90;6.63;;;128.40;2252.80;;;;;;5120191;28;20034;-70
2021/04/19 00:23:13;;;;;;;12.23;7.68;;;128.40;2252.80;;;;;;5120516;28;20019;-71
2021/04/19 00:25:39;;;;;;;10.77;7.63;;;128.40;2252.80;;;;;;5120437;28;20325;-71
2021/04/19 00:28:05;;;;;;;13.05;7.70;;;128.40;2252.80;;;;;;5120448;28;20019;-71
2021/04/19 00:30:31;;;;;;;10.40;7.38;;;128.50;2252.80;;;;;;5120282;28;20028;-71
2021/04/19 00:32:57;;;;;;;12.98;7.97;;;128.50;2252.80;;;;;;5119788;28;20072;-71
2021/04/19 00:35:23;;;;;;;10.82;7.93;;;128.50;2252.80;;;;;;5119944;28;20023;-71
2021/04/19 00:37:49;;;;;;;10.68;7.25;;;128.50;2252.80;;;;;;5120612;28;20340;-71
2021/04/19 00:40:18;;;;;;;10.65;6.93;;;128.50;2252.80;;;;;;5119884;28;20391;-70
2021/04/19 00:42:46;;;;;;;16.13;8.20;;;128.40;2252.80;;;;;;5120199;28;20020;-71
2021/04/19 00:45:13;;;;;;;10.57;6.93;;;128.40;2252.80;;;;;;5120331;28;20110;-70
2021/04/19 00:47:39;;;;;;;11.57;7.63;;;128.30;2252.80;;;;;;5120085;28;20027;-70
2021/04/19 00:50:07;;;;;;;10.63;7.38;;;128.20;2252.80;;;;;;5120005;28;20023;-70
2021/04/19 00:52:34;;;;;;;13.05;8.65;;;128.10;2252.80;;;;;;5120224;28;20027;-71
2021/04/19 00:55:00;;;;;;;12.15;8.00;;;128.00;2252.80;;;;;;5119206;28;20063;-71
2021/04/19 00:57:28;;;;;;;11.20;7.40;;;103.30;2227.20;;;;;;5119612;28;20043;-71
2021/04/19 00:59:54;;;;;;;12.45;7.70;;;103.20;2227.20;;;;;;5119894;28;20031;-70
2021/04/19 01:02:20;;;;;;;11.25;7.47;;;103.20;2227.20;;;;;;5119549;28;20032;-71
2021/04/19 01:04:46;;;;;;;11.02;7.88;;;103.10;2227.20;;;;;;5120071;28;20023;-71
2021/04/19 01:07:12;;;;;;;12.55;7.45;;;103.10;2227.20;;;;;;5119085;28;20030;-71
2021/04/19 01:09:38;;;;;;;10.30;7.22;;;103.00;2227.20;;;;;;5119400;28;20024;-70
2021/04/19 01:12:04;;;;;;;11.13;7.68;;;102.90;2227.20;;;;;;5119830;28;20067;-71
2021/04/19 01:14:30;;;;;;;10.82;7.90;;;102.90;2227.20;;;;;;5119829;28;20024;-70
2021/04/19 01:16:55;;;;;;;10.77;7.03;;;102.90;2227.20;;;;;;5119216;28;20030;-71
2021/04/19 01:19:21;;;;;;;11.75;7.80;;;102.90;2227.20;;;;;;5119734;28;20023;-69
2021/04/19 01:21:47;;;;;;;12.38;7.50;;;102.90;2227.20;;;;;;5119397;28;20403;-70
2021/04/19 01:24:13;;;;;;;11.75;7.60;;;102.90;2227.20;;;;;;5119350;28;20073;-70
2021/04/19 01:26:38;;;;;;;9.70;7.22;;;102.90;2227.20;;;;;;5119036;28;20051;-70
2021/04/19 01:29:04;;;;;;;10.77;7.55;;;102.90;2227.20;;;;;;5119545;28;20102;-70
2021/04/19 01:31:30;;;;;;;12.07;7.38;;;102.90;2227.20;;;;;;5118645;28;20409;-70
2021/04/19 01:33:56;;;;;;;12.38;8.50;;;102.90;2227.20;;;;;;5119168;28;20048;-71
2021/04/19 01:36:25;;;;;;;12.30;7.85;;;102.80;2227.20;;;;;;5118817;28;20019;-70
2021/04/19 01:38:51;;;;;;;;;;;102.80;2227.20;;;;;;5118829;28;20443;-71
2021/04/19 01:41:17;;;;;;;15.77;8.45;;;102.70;2227.20;;;;;;5119049;28;19915;-71
2021/04/19 01:43:43;;;;;;;13.60;7.70;;;102.60;2227.20;;;;;;5118418;28;20417;-70
2021/04/19 01:46:09;;;;;;;13.30;7.93;;;102.50;2227.20;;;;;;5118385;28;20029;-71
2021/04/19 01:48:34;;;;;;;15.63;8.52;;;102.50;2227.20;;;;;;5118743;28;20027;-70
2021/04/19 01:51:00;;;;;;;12.63;8.18;;;102.40;2227.20;;;;;;5118202;28;20034;-71
2021/04/19 01:53:26;;;;;;;12.95;8.32;;;102.40;2227.20;;;;;;5118776;28;20054;-71
2021/04/19 01:55:52;;;;;;;10.85;7.53;;;102.40;2227.20;;;;;;5119017;28;20015;-70
2021/04/19 01:58:21;;;;;;;12.25;8.52;;;102.40;2227.20;;;;;;5100463;28;20079;-70
2021/04/19 02:00:53;;;;;;;;;;;102.40;2227.20;;;;;;5119095;28;20034;-71
2021/04/19 02:03:40;;;;;;;11.18;7.50;;;102.40;2227.20;;;;;;5118796;28;20209;-71
2021/04/19 02:06:30;;;;;;;10.27;7.32;;;102.40;2227.20;;;;;;5118489;28;20027;-71
2021/04/19 02:09:19;;;;;;;11.68;8.13;;;102.40;2227.20;;;;;;5118745;28;20075;-71
2021/04/19 02:12:11;;;;;;;11.38;7.80;;;102.50;2227.20;;;;;;5118792;28;20028;-70
2021/04/19 02:14:52;;;;;;;10.35;7.50;;;102.50;2227.20;;;;;;5118726;28;20023;-71
2021/04/19 02:17:46;;;;;;;14.13;8.13;;;102.50;2227.20;;;;;;5118384;28;20199;-71
2021/04/19 02:20:24;;;;;;;15.65;8.55;;;102.60;2227.20;;;;;;5117917;28;20054;-71
2021/04/19 02:22:56;;;;;;;14.48;7.80;;;102.60;2227.20;;;;;;5118601;28;20059;-71
2021/04/19 02:25:42;;;;;;;12.30;7.88;;;102.60;2227.20;;;;;;5117728;28;20073;-71
2021/04/19 02:28:19;;;;;;;10.85;8.07;;;102.60;2227.20;;;;;;5118276;28;20026;-70
2021/04/19 02:30:48;;;;;;;11.82;7.32;;;102.60;2227.20;;;;;;5118286;28;20071;-71
2021/04/19 02:33:17;;;;;;;11.20;7.60;;;102.70;2227.20;;;;;;5118054;28;20023;-71
2021/04/19 02:35:45;;;;;;;10.55;7.07;;;102.70;2227.20;;;;;;5117795;28;20362;-71
2021/04/19 02:38:22;;;;;;;11.15;7.68;;;102.70;2227.20;;;;;;5117700;28;20112;-70
2021/04/19 02:40:50;;;;;;;11.35;7.18;;;102.70;2227.20;;;;;;5117054;28;20066;-71
2021/04/19 02:43:17;;;;;;;11.90;7.65;;;102.70;2227.20;;;;;;5118224;28;20046;-70
2021/04/19 02:45:44;;;;;;;10.73;7.50;;;102.80;2227.20;;;;;;5117636;28;20026;-71
2021/04/19 02:48:13;;;;;;;11.75;7.72;;;102.80;2227.20;;;;;;5117850;28;20028;-71
2021/04/19 02:50:41;;;;;;;11.98;8.13;;;102.90;2227.20;;;;;;5118096;28;20401;-71
2021/04/19 02:53:08;;;;;;;12.37;7.40;;;103.00;2227.20;;;;;;5117273;28;20534;-71
2021/04/19 02:55:35;;;;;;;12.63;8.00;;;103.00;2227.20;;;;;;5117260;28;20712;-71
2021/04/19 02:58:06;;;;;;;11.77;7.75;;;103.10;2227.20;;;;;;5117483;28;20015;-71
2021/04/19 03:00:52;;;;;;;11.30;7.88;;;103.10;2227.20;;;;;;5118074;28;20100;-71
2021/04/19 03:03:26;;;;;;;11.10;7.45;;;103.20;2227.20;;;;;;5117829;28;20028;-70
2021/04/19 03:05:54;;;;;;;11.43;7.82;;;103.10;2227.20;;;;;;5114120;28;20015;-71
2021/04/19 03:08:21;;;;;;;11.07;7.18;;;103.10;2227.20;;;;;;5117386;28;20032;-71
2021/04/19 03:11:15;;;;;;;11.10;7.95;;;103.10;2227.20;;;;;;5117583;28;20035;-71
2021/04/19 03:13:43;;;;;;;10.90;7.57;;;103.00;2227.20;;;;;;5108086;28;20109;-71
2021/04/19 03:16:10;;;;;;;11.32;7.22;;;103.00;2227.20;;;;;;5108001;28;20031;-71
2021/04/19 03:18:38;;;;;;;10.80;7.68;;;103.00;2227.20;;;;;;5096892;28;20016;-71
2021/04/19 03:21:24;;;;;;;11.07;7.00;;;103.00;2227.20;;;;;;5097482;28;20111;-71
2021/04/19 03:23:54;;;;;;;10.57;6.55;;;103.00;2227.20;;;;;;5104879;28;20482;-70
2021/04/19 03:26:22;;;;;;;9.52;7.07;;;103.00;2227.20;;;;;;5117487;28;20046;-71
2021/04/19 03:28:50;;;;;;;10.63;7.30;;;103.00;2227.20;;;;;;5117609;28;20127;-71
2021/04/19 03:31:30;;;;;;;12.63;8.05;;;102.90;2227.20;;;;;;5121492;28;20568;-71
2021/04/19 03:34:01;;;;;;;12.48;8.57;;;102.90;2227.20;;;;;;5121606;28;20080;-71
2021/04/19 03:36:31;;;;;;;14.27;8.98;;;102.80;2227.20;;;;;;5121317;28;20028;-71
2021/04/19 03:38:58;;;;;;;13.30;8.00;;;102.80;2227.20;;;;;;5120520;28;20055;-71
2021/04/19 03:41:26;;;;;;;12.32;8.73;;;102.70;2227.20;;;;;;5121181;28;20019;-71
2021/04/19 03:43:57;;;;;;;13.38;8.88;;;102.80;2227.20;;;;;;5121083;28;20035;-70
2021/04/19 03:46:24;;;;;;;14.30;7.82;;;102.80;2227.20;;;;;;5121251;28;20031;-71
2021/04/19 03:48:55;;;;;;;14.20;9.55;;;102.80;2227.20;;;;;;5103959;28;20069;-70
2021/04/19 03:51:21;;;;;;;34.55;22.58;;;102.80;2227.20;;;;;;5100064;28;20036;-71
2021/04/19 03:53:50;;;;;;;89.75;51.90;;;102.80;2227.20;;;;;;5105312;28;20043;-71
2021/04/19 03:56:18;;;;;;;82.55;50.95;;;102.90;2227.20;;;;;;5109325;28;20027;-71
2021/04/19 03:58:46;;;;;;;42.97;31.17;;;102.80;2227.20;;;;;;5110216;28;20019;-71
2021/04/19 04:01:15;;;;;;;19.83;12.95;;;102.90;2227.20;;;;;;5110949;28;20355;-71
2021/04/19 04:03:44;;;;;;;14.10;9.45;;;102.90;2227.20;;;;;;5120629;28;20059;-70
2021/04/19 04:06:11;;;;;;;17.00;10.25;;;102.90;2227.20;;;;;;5120897;28;20028;-70
2021/04/19 04:08:39;;;;;;;15.82;9.07;;;102.90;2227.20;;;;;;5120432;28;20124;-71
2021/04/19 04:11:05;;;;;;;15.48;9.85;;;102.90;2227.20;;;;;;5109403;28;20051;-71
2021/04/19 04:13:34;;;;;;;15.55;10.02;;;102.90;2227.20;;;;;;5118139;28;20027;-71
2021/04/19 04:16:00;;;;;;;17.83;10.73;;;103.00;2227.20;;;;;;5120486;28;20106;-71
2021/04/19 04:18:26;;;;;;;14.73;10.32;;;103.00;2227.20;;;;;;5119535;28;20059;-71
2021/04/19 04:20:52;;;;;;;15.57;9.68;;;103.10;2227.20;;;;;;5110642;28;20027;-71
2021/04/19 04:23:19;;;;;;;14.98;9.98;;;103.10;2227.20;;;;;;5105529;28;20429;-71
2021/04/19 04:25:46;;;;;;;16.05;8.85;;;103.20;2227.20;;;;;;5099540;28;20016;-70
2021/04/19 04:28:13;;;;;;;15.63;10.20;;;103.30;2227.20;;;;;;5100347;28;20396;-71
2021/04/19 04:30:41;;;;;;;15.50;9.10;;;103.30;2227.20;;;;;;5099552;28;20031;-70
2021/04/19 04:33:08;;;;;;;12.43;8.35;;;103.30;2227.20;;;;;;5100031;28;20086;-70
2021/04/19 04:35:35;;;;;;;12.10;8.52;;;128.00;2252.80;;;;;;5099609;28;20421;-70
2021/04/19 04:38:01;;;;;;;9.85;6.72;;;128.10;2252.80;;;;;;5100174;28;20073;-70
2021/04/19 04:40:29;;;;;;;11.40;7.53;;;128.20;2252.80;;;;;;5099077;28;20044;-71
2021/04/19 04:43:01;;;;;;;13.13;8.07;;;128.20;2252.80;;;;;;5102394;28;20047;-71
2021/04/19 04:45:28;;;;;;;13.18;9.13;;;128.20;2252.80;;;;;;5109413;28;20031;-71
2021/04/19 04:47:59;;;;;;;12.30;8.10;;;128.30;2252.80;;;;;;5107981;28;20329;-70
2021/04/19 04:50:38;;;;;;;13.02;8.38;;;128.40;2252.80;;;;;;5107318;28;20485;-70
2021/04/19 04:53:09;;;;;;;12.93;8.13;;;128.50;2252.80;;;;;;5101364;28;20051;-70
2021/04/19 04:55:37;;;;;;;28.67;18.67;;;128.50;2252.80;;;;;;5114936;28;20072;-70
2021/04/19 04:58:06;;;;;;;20.17;13.82;;;128.50;2252.80;;;;;;5108302;28;20027;-70
2021/04/19 05:00:34;;;;;;;20.83;13.95;;;128.50;2252.80;;;;;;5107272;28;20028;-70
2021/04/19 05:03:02;;;;;;;14.95;10.45;;;128.60;2252.80;;;;;;5108078;28;20015;-70
2021/04/19 05:05:28;;;;;;;23.15;15.70;;;128.60;2252.80;;;;;;5107782;28;20097;-70
2021/04/19 05:07:55;;;;;;;21.70;14.85;;;128.60;2252.80;;;;;;5108659;28;20023;-70
2021/04/19 05:10:21;;;;;;;14.63;9.80;;;128.60;2252.80;;;;;;5097948;28;20032;-70
2021/04/19 05:12:47;;;;;;;18.98;13.23;;;128.60;2252.80;;;;;;5099054;28;20332;-70
2021/04/19 05:15:13;;;;;;;13.20;8.75;;;128.60;2252.80;;;;;;5098868;28;20039;-70
2021/04/19 05:17:43;;;;;;;17.10;11.93;;;128.60;2252.80;;;;;;5099307;28;20024;-70
2021/04/19 05:20:10;;;;;;;27.17;18.77;;;128.60;2252.80;;;;;;5098869;28;20024;-71
2021/04/19 05:22:37;;;;;;;15.98;10.23;;;128.70;2252.80;;;;;;5099061;28;20020;-70
2021/04/19 05:25:04;;;;;;;16.45;9.00;;;128.70;2252.80;;;;;;5098989;28;20020;-70
2021/04/19 05:27:31;;;;;;;15.98;10.73;;;128.60;2252.80;;;;;;5099066;28;20016;-71
2021/04/19 05:29:58;;;;;;;17.23;11.40;;;128.70;2252.80;;;;;;5098921;28;20421;-71
2021/04/19 05:32:24;;;;;;;14.10;9.43;;;128.70;2252.80;;;;;;5098782;28;20028;-70
2021/04/19 05:34:50;;;;;;;13.07;9.13;;;128.80;2252.80;;;;;;5099101;28;20341;-70
2021/04/19 05:37:19;;;;;;;12.82;8.80;;;128.80;2252.80;;;;;;5098658;28;20061;-71
2021/04/19 05:39:45;;;;;;;;;;;128.90;2252.80;;;;;;5099135;28;20052;-71
2021/04/19 05:42:13;;;;;;;19.65;12.30;;;153.70;2252.80;;;;;;5098345;28;19904;-71
2021/04/19 05:44:39;;;;;;;27.63;20.67;;;153.90;2252.80;;;;;;5098890;28;20386;-71
2021/04/19 05:47:06;;;;;;;17.38;12.38;;;154.00;2252.80;;;;;;5098553;28;20364;-71
2021/04/19 05:49:32;;;;;;;16.15;11.13;;;154.00;2252.80;;;;;;5098267;28;20325;-71
2021/04/19 05:52:01;;;;;;;15.18;10.00;;;154.10;2252.80;;;;;;5098260;28;20032;-70
2021/04/19 05:54:27;;;;;;;;;;;154.10;2252.80;;;;;;5098581;28;20034;-71
2021/04/19 05:57:09;;;;;;;11.70;8.50;;;154.30;2252.80;;;;;;5098100;28;19994;-70
2021/04/19 05:59:49;;;;;;;13.15;8.75;;;154.40;2252.80;;;;;;5098349;28;20060;-71
2021/04/19 06:02:26;;;;;;;14.27;9.93;;;154.50;2252.80;;;;;;5098314;28;20028;-71
2021/04/19 06:04:56;;;;;;;11.38;8.23;;;179.30;2252.80;;;;;;5097911;28;20333;-70
2021/04/19 06:07:34;;;;;;;10.73;8.07;;;179.50;2252.80;;;;;;5098183;28;20020;-71
2021/04/19 06:10:22;;;;;;;11.60;8.15;;;179.60;2252.80;;;;;;5098154;28;20023;-71
2021/04/19 06:12:51;;;;;;;14.32;10.00;;;179.90;2252.80;;;;;;5098029;28;20032;-71
2021/04/19 06:15:18;;;;;;;17.73;8.15;;;180.10;2252.80;;;;;;5098359;28;20028;-71
2021/04/19 06:17:49;;;;;;;17.15;11.68;;;205.00;2252.80;;;;;;5097769;28;20020;-71
2021/04/19 06:20:18;;;;;;;13.13;9.80;;;205.10;2252.80;;;;;;5098006;28;20031;-71
2021/04/19 06:22:44;;;;;;;16.60;9.57;;;205.20;2252.80;;;;;;5098261;28;20059;-71
2021/04/19 06:25:12;;;;;;;14.68;9.23;;;205.40;2252.80;;;;;;5097004;28;20414;-71
2021/04/19 06:27:38;;;;;;;11.63;8.15;;;205.50;2252.80;;;;;;5098116;28;20081;-71
2021/04/19 06:30:15;;;;;;;16.50;10.73;;;205.60;2252.80;;;;;;5097988;28;20077;-71
2021/04/19 06:32:43;;;;;;;16.90;8.50;;;205.70;2252.80;;;;;;5097215;28;20042;-71
2021/04/19 06:35:11;;;;;;;13.50;8.15;;;205.70;2252.80;;;;;;5097719;28;20024;-71
2021/04/19 06:37:36;;;;;;;12.10;8.85;;;230.40;2252.80;;;;;;5098007;28;20020;-71
2021/04/19 06:40:05;;;;;;;8.65;6.18;;;230.60;2252.80;;;;;;5097260;28;20394;-71
2021/04/19 06:42:31;;;;;;;9.90;6.82;;;230.60;2252.80;;;;;;5097424;28;20439;-71
2021/04/19 06:45:00;;;;;;;9.13;6.93;;;230.60;2252.80;;;;;;5097326;28;20450;-71
2021/04/19 06:47:26;;;;;;;8.13;5.85;;;230.60;2252.80;;;;;;5097613;28;20020;-71
2021/04/19 06:49:54;;;;;;;11.27;6.78;;;230.70;2252.80;;;;;;5097450;28;20031;-71
2021/04/19 06:52:21;;;;;;;8.95;7.13;;;231.00;2252.80;;;;;;5096557;28;20401;-71
2021/04/19 06:54:46;;;;;;;7.53;5.75;;;231.20;2252.80;;;;;;5097465;28;20024;-71
2021/04/19 06:57:15;;;;;;;9.15;6.55;;;231.30;2252.80;;;;;;5097401;28;20028;-71
2021/04/19 06:59:44;;;;;;;10.32;6.93;;;256.10;2252.80;;;;;;5097163;28;20023;-71
2021/04/19 07:02:33;;;;;;;10.35;7.07;;;256.20;2252.80;;;;;;5097008;28;20028;-71
2021/04/19 07:05:00;;;;;;;9.85;6.85;;;256.30;2252.80;;;;;;5097073;28;20032;-71
2021/04/19 07:07:36;;;;;;;11.52;7.07;;;256.20;2252.80;;;;;;5097320;28;20020;-71
2021/04/19 07:10:05;;;;;;;9.82;6.75;;;256.10;2252.80;;;;;;5097626;28;20323;-71
2021/04/19 07:12:33;;;;;;;9.30;7.30;;;256.00;2252.80;;;;;;5096960;28;20028;-71
2021/04/19 07:15:04;;;;;;;11.13;8.02;;;256.00;2252.80;;;;;;5096709;28;20410;-71
2021/04/19 07:17:30;;;;;;;8.27;6.32;;;256.00;2252.80;;;;;;5096633;28;20111;-71
2021/04/19 07:19:56;;;;;;;10.18;7.47;;;231.30;2252.80;;;;;;5096625;28;20103;-71
2021/04/19 07:22:22;;;;;;;8.38;5.88;;;256.10;2252.80;;;;;;5096811;28;20024;-71
2021/04/19 07:24:48;;;;;;;9.93;6.32;;;256.10;2252.80;;;;;;5079123;28;20039;-71
2021/04/19 07:27:15;;;;;;;7.38;5.65;;;256.30;2252.80;;;;;;5096585;28;20031;-71
2021/04/19 07:29:41;;;;;;;7.95;5.63;;;256.30;2252.80;;;;;;5097432;28;20031;-71
2021/04/19 07:32:08;;;;;;;8.38;6.38;;;256.30;2252.80;;;;;;5097328;28;20032;-71
2021/04/19 07:34:35;;;;;;;10.55;7.10;;;256.40;2252.80;;;;;;5096828;28;20020;-71
2021/04/19 07:37:06;;;;;;;11.45;7.65;;;256.50;2227.20;;;;;;5097091;28;20022;-71
2021/04/19 07:39:37;;;;;;;9.65;7.60;;;256.80;2227.20;;;;;;5096894;28;20421;-71
2021/04/19 07:42:05;;;;;;;10.20;7.38;;;256.80;2176.00;;;;;;5096748;28;20032;-71
2021/04/19 07:44:51;;;;;;;11.43;8.13;;;281.60;2227.20;;;;;;5097216;28;20391;-71
2021/04/19 07:47:26;;;;;;;11.45;7.75;;;256.90;2176.00;;;;;;5097310;28;20024;-70
2021/04/19 07:49:58;;;;;;;10.98;7.10;;;281.60;2176.00;;;;;;5096282;28;20031;-71
2021/04/19 07:52:28;;;;;;;10.55;7.15;;;281.80;2201.60;;;;;;5104383;28;20043;-71
2021/04/19 07:55:13;;;;;;;10.93;7.25;;;282.00;2176.00;;;;;;5105043;28;20023;-72
2021/04/19 07:57:40;;;;;;;15.35;8.98;;;282.10;2150.40;;;;;;5105999;28;20107;-72
2021/04/19 08:00:08;;;;;;;11.20;7.70;;;282.30;2176.00;;;;;;5104329;28;20364;-71
2021/04/19 08:02:34;;;;;;;9.77;6.82;;;282.20;2176.00;;;;;;5105303;28;20058;-71
2021/04/19 08:05:04;;;;;;;9.82;7.38;;;282.00;2176.00;;;;;;5106438;28;20113;-71
2021/04/19 08:07:31;;;;;;;33.45;7.82;;;282.00;2201.60;;;;;;5105018;28;20751;-71
2021/04/19 08:10:00;;;;;;;11.43;9.02;;;281.90;2201.60;;;;;;5105190;28;20030;-71
2021/04/19 08:12:40;;;;;;;18.45;14.45;;;282.00;2201.60;;;;;;5106914;28;20034;-71
2021/04/19 08:15:14;;;;;;;11.52;8.48;;;282.40;2124.80;;;;;;5117257;27;20024;-71
2021/04/19 08:17:40;;;;;;;14.77;8.57;;;282.50;2124.80;;;;;;5119731;28;20034;-71
2021/04/19 08:20:10;;;;;;;11.65;8.50;;;282.50;2099.20;;;;;;5120244;28;20023;-71
2021/04/19 08:22:37;;;;;;;13.23;9.60;;;282.40;2073.60;;;;;;5119093;28;20360;-71
2021/04/19 08:25:17;;;;;;;17.02;10.25;;;282.30;2099.20;;;;;;5120287;28;20019;-71
2021/04/19 08:27:46;;;;;;;13.50;9.20;;;282.40;2099.20;;;;;;5120273;28;20058;-71
2021/04/19 08:30:15;;;;;;;11.80;8.85;;;307.30;2099.20;;;;;;5119132;28;20026;-71
2021/04/19 08:32:45;;;;;;;12.57;9.35;;;307.50;2073.60;;;;;;5120434;28;20105;-71
2021/04/19 08:35:12;;;;;;;14.45;9.77;;;307.80;2073.60;;;;;;5120471;28;20168;-71
2021/04/19 08:37:39;;;;;;;13.00;9.45;;;307.80;2073.60;;;;;;5120171;28;20152;-71
2021/04/19 08:40:06;;;;;;;14.18;9.40;;;307.70;2073.60;;;;;;5120306;28;20128;-71
2021/04/19 08:42:34;;;;;;;20.92;10.68;;;307.70;1996.80;;;;;;5119424;28;20035;-71
2021/04/19 08:45:01;;;;;;;17.20;9.90;;;307.70;2022.40;;;;;;5120303;28;20069;-71
2021/04/19 08:47:29;;;;;;;16.73;11.65;;;307.50;2048.00;;;;;;5119833;28;20110;-71
2021/04/19 08:50:01;;;;;;;17.17;10.93;;;307.40;2124.80;;;;;;5120176;28;20042;-71
2021/04/19 08:52:28;;;;;;;15.68;11.45;;;307.60;2073.60;;;;;;5119565;28;20077;-71
2021/04/19 08:54:54;;;;;;;19.48;11.18;;;307.70;2073.60;;;;;;5109432;28;20723;-71
2021/04/19 08:57:20;;;;;;;18.55;13.10;;;307.60;2150.40;;;;;;5108433;28;20028;-72
2021/04/19 08:59:48;;;;;;;15.80;11.10;;;307.20;2201.60;;;;;;5108737;28;21121;-72
2021/04/19 09:02:16;;;;;;;11.73;9.43;;;282.40;2176.00;;;;;;5107425;28;20606;-71
2021/04/19 09:05:00;;;;;;;12.60;8.93;;;282.30;2201.60;;;;;;5107771;28;20019;-73
2021/04/19 09:07:34;;;;;;;12.88;10.32;;;282.20;2201.60;;;;;;5115821;28;20114;-72
2021/04/19 09:10:01;;;;;;;13.23;9.52;;;282.00;2201.60;;;;;;5106261;28;20413;-73
2021/04/19 09:12:29;;;;;;;13.35;9.30;;;281.80;2176.00;;;;;;5097605;28;20044;-73
2021/04/19 09:15:18;;;;;;;12.80;9.47;;;281.70;2278.40;;;;;;5098845;28;20028;-73
2021/04/19 09:18:00;;;;;;;14.43;8.45;;;281.60;2278.40;;;;;;5099260;28;20020;-74
2021/04/19 09:20:44;;;;;;;14.35;9.50;;;281.80;2278.40;;;;;;5098938;28;20035;-74
2021/04/19 09:23:25;;;;;;;16.35;10.13;;;282.10;2252.80;;;;;;5098889;28;20024;-74
2021/04/19 09:25:52;;;;;;;12.13;9.38;;;307.20;2201.60;;;;;;5098821;28;20055;-74
2021/04/19 09:28:40;;;;;;;11.45;9.30;;;282.50;2176.00;;;;;;5097428;28;20477;-74
2021/04/19 09:31:10;;;;;;;12.43;9.20;;;307.50;2201.60;;;;;;5098316;28;20036;-74
2021/04/19 09:33:36;;;;;;;19.52;16.10;;;307.60;2176.00;;;;;;5097630;28;20020;-74
2021/04/19 09:36:03;;;;;;;14.73;12.07;;;307.80;2124.80;;;;;;5097714;28;20026;-74
2021/04/19 09:38:38;;;;;;;14.32;11.88;;;307.70;2124.80;;;;;;5098972;28;20336;-73
2021/04/19 09:41:12;;;;;;;18.55;12.50;;;307.70;2150.40;;;;;;5098618;28;20130;-74
2021/04/19 09:43:41;;;;;;;19.95;13.98;;;307.50;2099.20;;;;;;5098670;28;20060;-74
2021/04/19 09:46:33;;;;;;;13.60;9.80;;;307.50;2150.40;;;;;;5098046;28;20081;-74
2021/04/19 09:49:03;;;;;;;13.32;9.88;;;307.40;2150.40;;;;;;5094340;28;20154;-74
2021/04/19 09:51:38;;;;;;;13.57;9.98;;;307.50;2124.80;;;;;;5098178;28;20036;-73
2021/04/19 09:54:04;;;;;;;17.40;13.77;;;307.20;2073.60;;;;;;5097658;28;20342;-75
2021/04/19 09:56:56;;;;;;;16.30;13.23;;;307.30;2150.40;;;;;;5098319;28;20402;-75
2021/04/19 09:59:24;;;;;;;16.48;13.68;;;307.40;2124.80;;;;;;5098421;28;20028;-74
2021/04/19 10:01:54;;;;;;;19.63;16.00;;;307.50;2124.80;;;;;;5098333;28;20042;-74
2021/04/19 10:04:21;;;;;;;12.90;9.02;;;307.60;2099.20;;;;;;5098544;28;20024;-74
2021/04/19 10:06:57;;;;;;;10.35;8.25;;;307.40;2150.40;;;;;;5098156;28;20124;-74
2021/04/19 10:09:25;;;;;;;11.00;8.63;;;307.30;2150.40;;;;;;5098250;28;20034;-74
2021/04/19 10:12:03;;;;;;;11.63;9.55;;;307.40;2099.20;;;;;;5097295;28;20032;-73
2021/04/19 10:14:36;;;;;;;14.30;10.32;;;307.30;2073.60;;;;;;5097157;28;20034;-74
2021/04/19 10:17:15;;;;;;;11.02;8.60;;;307.40;2022.40;;;;;;5097324;28;20016;-73
2021/04/19 10:19:41;;;;;;;16.15;10.55;;;307.30;2048.00;;;;;;5098034;28;20027;-74
2021/04/19 10:22:08;;;;;;;14.27;8.70;;;307.60;2073.60;;;;;;5097728;28;20036;-74
2021/04/19 10:24:36;;;;;;;11.63;8.95;;;307.60;2048.00;;;;;;5097638;28;20016;-74
2021/04/19 10:27:04;;;;;;;10.50;8.38;;;307.50;2022.40;;;;;;5097461;28;20472;-73
2021/04/19 10:29:30;;;;;;;13.50;9.70;;;307.70;2022.40;;;;;;5097545;28;20332;-73
2021/04/19 10:31:59;;;;;;;13.88;9.75;;;307.50;2073.60;;;;;;5097751;28;20028;-73
2021/04/19 10:34:28;;;;;;;17.00;11.25;;;307.70;2073.60;;;;;;5097802;28;20047;-73
2021/04/19 10:36:57;;;;;;;28.48;15.43;;;307.70;2048.00;;;;;;5096875;28;20028;-74
2021/04/19 10:39:28;;;;;;;10.48;8.07;;;307.70;2073.60;;;;;;5096894;28;20125;-73
2021/04/19 10:41:58;;;;;;;17.48;12.63;;;307.60;2073.60;;;;;;5098010;28;20039;-72
2021/04/19 10:44:44;;;;;;;15.70;10.48;;;307.80;2099.20;;;;;;5097314;28;20024;-73
2021/04/19 10:47:14;;;;;;;14.93;11.07;;;307.70;2124.80;;;;;;5097449;28;20042;-73
2021/04/19 10:49:41;;;;;;;14.20;10.95;;;307.60;2124.80;;;;;;5097378;28;20481;-73
2021/04/19 10:52:09;;;;;;;12.77;9.48;;;307.50;2124.80;;;;;;5096944;28;20028;-73
2021/04/19 10:54:37;;;;;;;11.77;9.23;;;307.60;2124.80;;;;;;5097252;28;20024;-73
2021/04/19 10:57:05;;;;;;;12.43;9.18;;;307.30;2150.40;;;;;;5097258;28;20019;-73
2021/04/19 10:59:32;;;;;;;13.57;9.90;;;282.40;2150.40;;;;;;5097383;28;20414;-73
2021/04/19 11:01:59;;;;;;;34.30;27.52;;;282.50;2150.40;;;;;;5096835;28;20440;-73
2021/04/19 11:04:26;;;;;;;25.27;17.63;;;282.50;2150.40;;;;;;5097121;28;20414;-73
2021/04/19 11:06:51;;;;;;;31.77;13.00;;;307.30;2252.80;;;;;;5097019;28;20027;-73
2021/04/19 11:09:26;;;;;;;19.23;11.75;;;307.20;2201.60;;;;;;5097073;28;20479;-73
2021/04/19 11:11:54;;;;;;;21.02;16.65;;;282.50;2201.60;;;;;;5096514;28;20139;-73
2021/04/19 11:14:20;;;;;;;13.23;10.90;;;307.30;2201.60;;;;;;5097284;28;20028;-73
2021/04/19 11:17:04;;;;;;;24.42;12.88;;;282.50;2201.60;;;;;;5096879;28;20463;-73
2021/04/19 11:19:42;;;;;;;18.00;13.75;;;307.20;2252.80;;;;;;5099554;28;20318;-73
2021/04/19 11:22:20;;;;;;;16.55;10.95;;;307.40;2227.20;;;;;;5117214;28;20034;-73
2021/04/19 11:24:45;;;;;;;17.38;12.98;;;307.30;2201.60;;;;;;5117501;28;20044;-73
2021/04/19 11:27:12;;;;;;;15.40;12.15;;;307.20;2201.60;;;;;;5117834;28;20020;-73
2021/04/19 11:29:43;;;;;;;18.30;11.80;;;307.20;2227.20;;;;;;5117232;28;20032;-73
2021/04/19 11:32:25;;;;;;;17.75;13.13;;;307.40;2227.20;;;;;;5117664;28;20409;-73
2021/04/19 11:34:53;;;;;;;14.63;10.35;;;307.50;2201.60;;;;;;5117241;28;20020;-73
2021/04/19 11:37:37;;;;;;;12.23;10.43;;;307.40;2227.20;;;;;;5117483;28;20115;-73
2021/04/19 11:40:29;;;;;;;14.18;8.90;;;307.40;2201.60;;;;;;5116886;28;20046;-73
2021/04/19 11:42:55;;;;;;;19.17;12.23;;;307.40;2201.60;;;;;;5117199;28;20077;-73
2021/04/19 11:45:23;;;;;;;12.55;10.98;;;307.40;2201.60;;;;;;5117639;28;20024;-73
2021/04/19 11:47:50;;;;;;;14.60;12.07;;;307.70;2124.80;;;;;;5117324;28;20033;-73
2021/04/19 11:50:16;;;;;;;14.95;10.10;;;307.90;2124.80;;;;;;5117956;28;20051;-73
2021/04/19 11:52:50;;;;;;;12.25;9.68;;;308.10;2124.80;;;;;;5121504;28;20063;-73
2021/04/19 11:55:17;;;;;;;14.13;10.18;;;332.80;2124.80;;;;;;5121472;28;20024;-74
2021/04/19 11:57:44;;;;;;;14.40;10.30;;;332.80;2099.20;;;;;;5120654;28;20026;-74
2021/04/19 12:00:12;;;;;;;11.90;9.85;;;332.90;2099.20;;;;;;5120561;28;20024;-73
2021/04/19 12:02:38;;;;;;;14.90;10.70;;;332.90;2073.60;;;;;;5120653;28;20030;-73
2021/04/19 12:05:08;;;;;;;14.80;11.88;;;333.00;2048.00;;;;;;5112097;28;20400;-73
2021/04/19 12:07:34;;;;;;;15.45;9.80;;;333.20;2048.00;;;;;;5108754;28;20027;-73
2021/04/19 12:10:00;;;;;;;14.27;9.95;;;333.20;2048.00;;;;;;5101617;28;20060;-73
2021/04/19 12:12:27;;;;;;;13.23;10.13;;;332.80;2022.40;;;;;;5128222;27;20126;-74
2021/04/19 12:14:53;;;;;;;15.27;12.77;;;333.00;2022.40;;;;;;5109590;28;20110;-74
2021/04/19 12:17:19;;;;;;;16.48;11.50;;;333.00;2099.20;;;;;;5110251;28;20023;-74
2021/04/19 12:19:45;;;;;;;15.18;11.73;;;333.10;2048.00;;;;;;5107522;28;20115;-74
2021/04/19 12:22:11;;;;;;;13.73;10.82;;;333.30;2022.40;;;;;;5109198;28;20062;-74